sensor_id;sensor_type;location;lat;lon;timestamp;P1;durP1;ratioP1;P2;durP2;ratioP2
4650;SDS011;2338;49.602;8.722;2023-02-01T00:02:36;8.60;;;6.35;;
4650;SDS011;2338;49.602;8.722;2023-02-01T00:05:24;8.48;;;6.75;;
4650;SDS011;2338;49.602;8.722;2023-02-01T00:08:09;8.38;;;6.22;;
4650;SDS011;2338;49.602;8.722;2023-02-01T00:10:59;9.93;;;6.93;;
4650;SDS011;2338;49.602;8.722;2023-02-01T00:13:46;8.20;;;6.13;;
4650;SDS011;2338;49.602;8.722;2023-02-01T00:16:32;8.90;;;6.28;;
4650;SDS011;2338;49.602;8.722;2023-02-01T00:19:17;10.93;;;7.10;;
4650;SDS011;2338;49.602;8.722;2023-02-01T00:22:03;7.55;;;5.80;;
4650;SDS011;2338;49.602;8.722;2023-02-01T00:24:49;7.73;;;6.50;;
4650;SDS011;2338;49.602;8.722;2023-02-01T00:27:34;10.32;;;6.43;;
4650;SDS011;2338;49.602;8.722;2023-02-01T00:30:21;12.23;;;7.70;;
4650;SDS011;2338;49.602;8.722;2023-02-01T00:33:07;7.60;;;6.03;;
4650;SDS011;2338;49.602;8.722;2023-02-01T00:35:55;8.07;;;6.03;;
4650;SDS011;2338;49.602;8.722;2023-02-01T00:38:42;8.60;;;6.25;;
4650;SDS011;2338;49.602;8.722;2023-02-01T00:41:27;9.15;;;6.00;;
4650;SDS011;2338;49.602;8.722;2023-02-01T00:44:13;7.07;;;5.50;;
4650;SDS011;2338;49.602;8.722;2023-02-01T00:47:00;9.75;;;6.18;;
4650;SDS011;2338;49.602;8.722;2023-02-01T00:49:46;10.50;;;6.45;;
4650;SDS011;2338;49.602;8.722;2023-02-01T00:52:32;11.90;;;5.93;;
4650;SDS011;2338;49.602;8.722;2023-02-01T00:55:17;7.32;;;6.53;;
4650;SDS011;2338;49.602;8.722;2023-02-01T00:58:03;10.15;;;6.80;;
4650;SDS011;2338;49.602;8.722;2023-02-01T01:00:49;11.07;;;6.20;;
4650;SDS011;2338;49.602;8.722;2023-02-01T01:03:37;8.23;;;6.65;;
4650;SDS011;2338;49.602;8.722;2023-02-01T01:06:24;8.80;;;6.00;;
4650;SDS011;2338;49.602;8.722;2023-02-01T01:09:12;8.77;;;6.45;;
4650;SDS011;2338;49.602;8.722;2023-02-01T01:11:58;9.25;;;7.35;;
4650;SDS011;2338;49.602;8.722;2023-02-01T01:14:46;9.88;;;7.03;;
4650;SDS011;2338;49.602;8.722;2023-02-01T01:17:32;10.88;;;7.18;;
4650;SDS011;2338;49.602;8.722;2023-02-01T01:20:19;8.55;;;7.22;;
4650;SDS011;2338;49.602;8.722;2023-02-01T01:23:05;15.23;;;7.72;;
4650;SDS011;2338;49.602;8.722;2023-02-01T01:25:52;9.27;;;6.68;;
4650;SDS011;2338;49.602;8.722;2023-02-01T01:28:37;10.65;;;7.22;;
4650;SDS011;2338;49.602;8.722;2023-02-01T01:31:23;12.02;;;6.45;;
4650;SDS011;2338;49.602;8.722;2023-02-01T01:34:09;9.43;;;7.32;;
4650;SDS011;2338;49.602;8.722;2023-02-01T01:36:56;8.85;;;6.90;;
4650;SDS011;2338;49.602;8.722;2023-02-01T01:39:42;10.20;;;6.88;;
4650;SDS011;2338;49.602;8.722;2023-02-01T01:42:27;7.68;;;6.60;;
4650;SDS011;2338;49.602;8.722;2023-02-01T01:45:19;12.45;;;6.68;;
4650;SDS011;2338;49.602;8.722;2023-02-01T01:48:09;9.32;;;6.57;;
4650;SDS011;2338;49.602;8.722;2023-02-01T01:51:00;9.77;;;7.17;;
4650;SDS011;2338;49.602;8.722;2023-02-01T01:53:52;9.25;;;7.10;;
4650;SDS011;2338;49.602;8.722;2023-02-01T01:56:43;12.15;;;8.15;;
4650;SDS011;2338;49.602;8.722;2023-02-01T01:59:35;10.53;;;7.83;;
4650;SDS011;2338;49.602;8.722;2023-02-01T02:02:25;10.48;;;6.55;;
4650;SDS011;2338;49.602;8.722;2023-02-01T02:05:10;9.65;;;6.80;;
4650;SDS011;2338;49.602;8.722;2023-02-01T02:07:58;8.63;;;6.40;;
4650;SDS011;2338;49.602;8.722;2023-02-01T02:10:46;7.93;;;5.88;;
4650;SDS011;2338;49.602;8.722;2023-02-01T02:13:46;8.75;;;6.35;;
4650;SDS011;2338;49.602;8.722;2023-02-01T02:16:49;8.38;;;6.57;;
4650;SDS011;2338;49.602;8.722;2023-02-01T02:20:07;10.00;;;7.90;;
4650;SDS011;2338;49.602;8.722;2023-02-01T02:23:20;10.07;;;7.00;;
4650;SDS011;2338;49.602;8.722;2023-02-01T02:30:01;8.65;;;6.60;;
4650;SDS011;2338;49.602;8.722;2023-02-01T02:36:37;7.93;;;6.95;;
4650;SDS011;2338;49.602;8.722;2023-02-01T02:39:32;9.05;;;7.20;;
4650;SDS011;2338;49.602;8.722;2023-02-01T02:42:25;10.50;;;7.03;;
4650;SDS011;2338;49.602;8.722;2023-02-01T02:45:34;15.05;;;7.88;;
4650;SDS011;2338;49.602;8.722;2023-02-01T02:48:44;8.70;;;6.53;;
4650;SDS011;2338;49.602;8.722;2023-02-01T02:51:37;11.32;;;7.60;;
4650;SDS011;2338;49.602;8.722;2023-02-01T02:54:47;8.70;;;7.00;;
4650;SDS011;2338;49.602;8.722;2023-02-01T02:57:36;12.98;;;7.97;;
4650;SDS011;2338;49.602;8.722;2023-02-01T03:00:41;14.68;;;8.70;;
4650;SDS011;2338;49.602;8.722;2023-02-01T03:03:48;10.25;;;6.95;;
4650;SDS011;2338;49.602;8.722;2023-02-01T03:06:52;7.65;;;6.72;;
4650;SDS011;2338;49.602;8.722;2023-02-01T03:09:38;10.35;;;7.30;;
4650;SDS011;2338;49.602;8.722;2023-02-01T03:12:26;10.73;;;6.72;;
4650;SDS011;2338;49.602;8.722;2023-02-01T03:15:31;10.07;;;6.93;;
4650;SDS011;2338;49.602;8.722;2023-02-01T03:18:22;10.20;;;7.15;;
4650;SDS011;2338;49.602;8.722;2023-02-01T03:21:15;8.30;;;6.75;;
4650;SDS011;2338;49.602;8.722;2023-02-01T03:24:04;11.98;;;6.88;;
4650;SDS011;2338;49.602;8.722;2023-02-01T03:26:54;12.40;;;7.93;;
4650;SDS011;2338;49.602;8.722;2023-02-01T03:29:44;9.40;;;7.10;;
4650;SDS011;2338;49.602;8.722;2023-02-01T03:32:33;7.70;;;6.60;;
4650;SDS011;2338;49.602;8.722;2023-02-01T03:35:36;9.73;;;7.35;;
4650;SDS011;2338;49.602;8.722;2023-02-01T03:38:30;9.90;;;7.55;;
4650;SDS011;2338;49.602;8.722;2023-02-01T03:41:18;11.02;;;7.43;;
4650;SDS011;2338;49.602;8.722;2023-02-01T03:44:12;14.70;;;8.23;;
4650;SDS011;2338;49.602;8.722;2023-02-01T03:47:02;9.25;;;7.18;;
4650;SDS011;2338;49.602;8.722;2023-02-01T03:49:52;12.63;;;8.57;;
4650;SDS011;2338;49.602;8.722;2023-02-01T03:52:43;16.15;;;8.50;;
4650;SDS011;2338;49.602;8.722;2023-02-01T03:55:32;13.60;;;8.40;;
4650;SDS011;2338;49.602;8.722;2023-02-01T03:58:21;12.38;;;8.85;;
4650;SDS011;2338;49.602;8.722;2023-02-01T04:01:08;13.70;;;7.85;;
4650;SDS011;2338;49.602;8.722;2023-02-01T04:03:54;10.88;;;7.55;;
4650;SDS011;2338;49.602;8.722;2023-02-01T04:06:39;12.18;;;6.97;;
4650;SDS011;2338;49.602;8.722;2023-02-01T04:09:25;9.55;;;7.32;;
4650;SDS011;2338;49.602;8.722;2023-02-01T04:12:12;9.95;;;7.53;;
4650;SDS011;2338;49.602;8.722;2023-02-01T04:14:58;10.27;;;6.50;;
4650;SDS011;2338;49.602;8.722;2023-02-01T04:17:43;17.60;;;7.93;;
4650;SDS011;2338;49.602;8.722;2023-02-01T04:20:29;8.98;;;6.68;;
4650;SDS011;2338;49.602;8.722;2023-02-01T04:23:15;12.10;;;7.70;;
4650;SDS011;2338;49.602;8.722;2023-02-01T04:26:00;11.27;;;8.13;;
4650;SDS011;2338;49.602;8.722;2023-02-01T04:28:48;10.27;;;7.45;;
4650;SDS011;2338;49.602;8.722;2023-02-01T04:31:34;9.27;;;8.20;;
4650;SDS011;2338;49.602;8.722;2023-02-01T04:34:20;9.00;;;7.65;;
4650;SDS011;2338;49.602;8.722;2023-02-01T04:37:08;10.50;;;7.40;;
4650;SDS011;2338;49.602;8.722;2023-02-01T04:39:53;9.25;;;7.22;;
4650;SDS011;2338;49.602;8.722;2023-02-01T04:42:39;13.95;;;8.25;;
4650;SDS011;2338;49.602;8.722;2023-02-01T04:45:26;10.60;;;7.82;;
4650;SDS011;2338;49.602;8.722;2023-02-01T04:48:12;9.82;;;8.10;;
4650;SDS011;2338;49.602;8.722;2023-02-01T04:50:58;9.23;;;7.07;;
4650;SDS011;2338;49.602;8.722;2023-02-01T04:53:43;7.90;;;7.05;;
4650;SDS011;2338;49.602;8.722;2023-02-01T04:56:30;9.30;;;7.72;;
4650;SDS011;2338;49.602;8.722;2023-02-01T04:59:16;11.15;;;7.65;;
4650;SDS011;2338;49.602;8.722;2023-02-01T05:02:03;11.82;;;7.75;;
4650;SDS011;2338;49.602;8.722;2023-02-01T05:04:48;11.25;;;7.90;;
4650;SDS011;2338;49.602;8.722;2023-02-01T05:07:34;10.40;;;7.95;;
4650;SDS011;2338;49.602;8.722;2023-02-01T05:10:20;10.10;;;7.30;;
4650;SDS011;2338;49.602;8.722;2023-02-01T05:13:07;13.30;;;8.48;;
4650;SDS011;2338;49.602;8.722;2023-02-01T05:16:11;12.48;;;6.53;;
4650;SDS011;2338;49.602;8.722;2023-02-01T05:18:58;11.53;;;7.17;;
4650;SDS011;2338;49.602;8.722;2023-02-01T05:21:43;15.50;;;6.95;;
4650;SDS011;2338;49.602;8.722;2023-02-01T05:24:29;7.85;;;6.18;;
4650;SDS011;2338;49.602;8.722;2023-02-01T05:27:15;10.50;;;5.97;;
4650;SDS011;2338;49.602;8.722;2023-02-01T05:30:01;18.23;;;5.07;;
4650;SDS011;2338;49.602;8.722;2023-02-01T05:32:49;5.85;;;4.13;;
4650;SDS011;2338;49.602;8.722;2023-02-01T05:35:36;4.95;;;4.18;;
4650;SDS011;2338;49.602;8.722;2023-02-01T05:38:21;8.47;;;4.27;;
4650;SDS011;2338;49.602;8.722;2023-02-01T05:41:07;8.93;;;4.90;;
4650;SDS011;2338;49.602;8.722;2023-02-01T05:43:53;5.45;;;4.30;;
4650;SDS011;2338;49.602;8.722;2023-02-01T05:46:38;10.50;;;4.80;;
4650;SDS011;2338;49.602;8.722;2023-02-01T05:49:24;9.17;;;6.27;;
4650;SDS011;2338;49.602;8.722;2023-02-01T05:52:11;19.67;;;7.35;;
4650;SDS011;2338;49.602;8.722;2023-02-01T05:54:56;10.63;;;7.47;;
4650;SDS011;2338;49.602;8.722;2023-02-01T05:57:42;13.18;;;7.90;;
4650;SDS011;2338;49.602;8.722;2023-02-01T06:00:28;14.30;;;9.23;;
4650;SDS011;2338;49.602;8.722;2023-02-01T06:03:13;16.42;;;8.93;;
4650;SDS011;2338;49.602;8.722;2023-02-01T06:05:59;15.02;;;10.15;;
4650;SDS011;2338;49.602;8.722;2023-02-01T06:08:46;13.18;;;9.38;;
4650;SDS011;2338;49.602;8.722;2023-02-01T06:11:32;12.25;;;10.57;;
4650;SDS011;2338;49.602;8.722;2023-02-01T06:14:18;18.30;;;9.82;;
4650;SDS011;2338;49.602;8.722;2023-02-01T06:17:03;14.35;;;10.75;;
4650;SDS011;2338;49.602;8.722;2023-02-01T06:19:50;20.15;;;10.82;;
4650;SDS011;2338;49.602;8.722;2023-02-01T06:22:36;13.10;;;9.35;;
4650;SDS011;2338;49.602;8.722;2023-02-01T06:25:23;15.30;;;9.55;;
4650;SDS011;2338;49.602;8.722;2023-02-01T06:28:08;13.23;;;10.15;;
4650;SDS011;2338;49.602;8.722;2023-02-01T06:30:54;16.50;;;10.20;;
4650;SDS011;2338;49.602;8.722;2023-02-01T06:33:41;12.18;;;9.05;;
4650;SDS011;2338;49.602;8.722;2023-02-01T06:36:27;16.63;;;9.90;;
4650;SDS011;2338;49.602;8.722;2023-02-01T06:39:13;15.50;;;10.18;;
4650;SDS011;2338;49.602;8.722;2023-02-01T06:42:00;16.98;;;9.63;;
4650;SDS011;2338;49.602;8.722;2023-02-01T06:44:46;13.82;;;8.05;;
4650;SDS011;2338;49.602;8.722;2023-02-01T06:47:32;10.63;;;7.82;;
4650;SDS011;2338;49.602;8.722;2023-02-01T06:50:17;15.98;;;9.18;;
4650;SDS011;2338;49.602;8.722;2023-02-01T06:53:03;18.02;;;10.77;;
4650;SDS011;2338;49.602;8.722;2023-02-01T06:55:52;13.40;;;9.13;;
4650;SDS011;2338;49.602;8.722;2023-02-01T06:58:39;20.40;;;9.27;;
4650;SDS011;2338;49.602;8.722;2023-02-01T07:01:25;21.13;;;10.20;;
4650;SDS011;2338;49.602;8.722;2023-02-01T07:04:11;15.93;;;10.27;;
4650;SDS011;2338;49.602;8.722;2023-02-01T07:06:57;13.25;;;9.82;;
4650;SDS011;2338;49.602;8.722;2023-02-01T07:09:43;16.43;;;10.20;;
4650;SDS011;2338;49.602;8.722;2023-02-01T07:12:28;17.77;;;9.50;;
4650;SDS011;2338;49.602;8.722;2023-02-01T07:15:16;21.42;;;12.60;;
4650;SDS011;2338;49.602;8.722;2023-02-01T07:18:02;17.13;;;10.85;;
4650;SDS011;2338;49.602;8.722;2023-02-01T07:20:50;11.50;;;7.65;;
4650;SDS011;2338;49.602;8.722;2023-02-01T07:23:36;9.23;;;8.23;;
4650;SDS011;2338;49.602;8.722;2023-02-01T07:26:22;14.13;;;9.23;;
4650;SDS011;2338;49.602;8.722;2023-02-01T07:29:08;13.93;;;8.70;;
4650;SDS011;2338;49.602;8.722;2023-02-01T07:31:54;15.80;;;10.02;;
4650;SDS011;2338;49.602;8.722;2023-02-01T07:34:40;10.77;;;8.50;;
4650;SDS011;2338;49.602;8.722;2023-02-01T07:37:25;29.33;;;14.90;;
4650;SDS011;2338;49.602;8.722;2023-02-01T07:40:11;46.60;;;23.77;;
4650;SDS011;2338;49.602;8.722;2023-02-01T07:42:57;26.17;;;14.70;;
4650;SDS011;2338;49.602;8.722;2023-02-01T07:45:49;54.58;;;27.38;;
4650;SDS011;2338;49.602;8.722;2023-02-01T07:48:37;29.08;;;14.43;;
4650;SDS011;2338;49.602;8.722;2023-02-01T07:51:23;32.33;;;17.20;;
4650;SDS011;2338;49.602;8.722;2023-02-01T07:54:09;35.10;;;16.60;;
4650;SDS011;2338;49.602;8.722;2023-02-01T07:56:55;16.05;;;8.60;;
4650;SDS011;2338;49.602;8.722;2023-02-01T07:59:41;17.73;;;9.07;;
4650;SDS011;2338;49.602;8.722;2023-02-01T08:02:40;21.55;;;9.35;;
4650;SDS011;2338;49.602;8.722;2023-02-01T08:05:28;9.82;;;7.60;;
4650;SDS011;2338;49.602;8.722;2023-02-01T08:08:13;9.60;;;7.00;;
4650;SDS011;2338;49.602;8.722;2023-02-01T08:11:00;15.38;;;8.15;;
4650;SDS011;2338;49.602;8.722;2023-02-01T08:13:47;14.67;;;7.80;;
4650;SDS011;2338;49.602;8.722;2023-02-01T08:16:32;19.92;;;8.10;;
4650;SDS011;2338;49.602;8.722;2023-02-01T08:19:21;16.23;;;7.70;;
4650;SDS011;2338;49.602;8.722;2023-02-01T08:22:08;15.02;;;8.32;;
4650;SDS011;2338;49.602;8.722;2023-02-01T08:24:53;14.98;;;8.05;;
4650;SDS011;2338;49.602;8.722;2023-02-01T08:27:44;14.80;;;8.65;;
4650;SDS011;2338;49.602;8.722;2023-02-01T08:30:30;13.70;;;8.25;;
4650;SDS011;2338;49.602;8.722;2023-02-01T08:33:16;13.80;;;8.73;;
4650;SDS011;2338;49.602;8.722;2023-02-01T08:36:02;15.85;;;9.60;;
4650;SDS011;2338;49.602;8.722;2023-02-01T08:38:50;14.47;;;7.33;;
4650;SDS011;2338;49.602;8.722;2023-02-01T08:41:36;24.60;;;6.43;;
4650;SDS011;2338;49.602;8.722;2023-02-01T08:44:21;17.42;;;6.95;;
4650;SDS011;2338;49.602;8.722;2023-02-01T08:47:07;10.25;;;6.28;;
4650;SDS011;2338;49.602;8.722;2023-02-01T08:49:53;13.93;;;7.07;;
4650;SDS011;2338;49.602;8.722;2023-02-01T08:52:39;12.57;;;6.53;;
4650;SDS011;2338;49.602;8.722;2023-02-01T08:55:26;16.77;;;7.80;;
4650;SDS011;2338;49.602;8.722;2023-02-01T08:58:12;12.48;;;5.88;;
4650;SDS011;2338;49.602;8.722;2023-02-01T09:01:02;10.38;;;5.80;;
4650;SDS011;2338;49.602;8.722;2023-02-01T09:03:48;13.48;;;5.90;;
4650;SDS011;2338;49.602;8.722;2023-02-01T09:06:34;17.17;;;5.15;;
4650;SDS011;2338;49.602;8.722;2023-02-01T09:09:20;12.47;;;5.33;;
4650;SDS011;2338;49.602;8.722;2023-02-01T09:12:07;11.45;;;4.82;;
4650;SDS011;2338;49.602;8.722;2023-02-01T09:14:53;12.93;;;4.60;;
4650;SDS011;2338;49.602;8.722;2023-02-01T09:17:39;11.93;;;6.68;;
4650;SDS011;2338;49.602;8.722;2023-02-01T09:20:27;10.88;;;4.28;;
4650;SDS011;2338;49.602;8.722;2023-02-01T09:23:13;15.70;;;4.45;;
4650;SDS011;2338;49.602;8.722;2023-02-01T09:25:59;12.45;;;5.40;;
4650;SDS011;2338;49.602;8.722;2023-02-01T09:28:46;13.30;;;4.40;;
4650;SDS011;2338;49.602;8.722;2023-02-01T09:31:32;12.73;;;5.78;;
4650;SDS011;2338;49.602;8.722;2023-02-01T09:34:17;15.02;;;7.53;;
4650;SDS011;2338;49.602;8.722;2023-02-01T09:37:03;14.75;;;5.13;;
4650;SDS011;2338;49.602;8.722;2023-02-01T09:39:49;14.02;;;5.40;;
4650;SDS011;2338;49.602;8.722;2023-02-01T09:42:41;15.60;;;5.25;;
4650;SDS011;2338;49.602;8.722;2023-02-01T09:45:40;13.95;;;4.63;;
4650;SDS011;2338;49.602;8.722;2023-02-01T09:48:33;12.23;;;6.50;;
4650;SDS011;2338;49.602;8.722;2023-02-01T09:51:24;17.40;;;6.05;;
4650;SDS011;2338;49.602;8.722;2023-02-01T09:54:15;23.98;;;8.63;;
4650;SDS011;2338;49.602;8.722;2023-02-01T09:57:03;14.27;;;6.70;;
4650;SDS011;2338;49.602;8.722;2023-02-01T09:59:54;9.93;;;5.43;;
4650;SDS011;2338;49.602;8.722;2023-02-01T10:02:46;21.95;;;7.45;;
4650;SDS011;2338;49.602;8.722;2023-02-01T10:05:38;12.80;;;6.07;;
4650;SDS011;2338;49.602;8.722;2023-02-01T10:08:40;16.23;;;5.15;;
4650;SDS011;2338;49.602;8.722;2023-02-01T10:11:42;15.45;;;4.80;;
4650;SDS011;2338;49.602;8.722;2023-02-01T10:14:39;14.15;;;6.32;;
4650;SDS011;2338;49.602;8.722;2023-02-01T10:17:45;18.10;;;4.55;;
4650;SDS011;2338;49.602;8.722;2023-02-01T10:20:48;16.60;;;4.82;;
4650;SDS011;2338;49.602;8.722;2023-02-01T10:23:55;12.02;;;4.50;;
4650;SDS011;2338;49.602;8.722;2023-02-01T10:26:48;14.52;;;4.75;;
4650;SDS011;2338;49.602;8.722;2023-02-01T10:29:40;16.52;;;4.05;;
4650;SDS011;2338;49.602;8.722;2023-02-01T10:32:28;10.57;;;3.45;;
4650;SDS011;2338;49.602;8.722;2023-02-01T10:35:18;13.43;;;4.00;;
4650;SDS011;2338;49.602;8.722;2023-02-01T10:38:07;10.60;;;3.00;;
4650;SDS011;2338;49.602;8.722;2023-02-01T10:41:02;12.27;;;4.22;;
4650;SDS011;2338;49.602;8.722;2023-02-01T10:43:56;13.67;;;3.47;;
4650;SDS011;2338;49.602;8.722;2023-02-01T10:46:43;15.10;;;4.10;;
4650;SDS011;2338;49.602;8.722;2023-02-01T10:49:29;15.52;;;5.07;;
4650;SDS011;2338;49.602;8.722;2023-02-01T10:52:27;41.35;;;4.10;;
4650;SDS011;2338;49.602;8.722;2023-02-01T10:55:26;23.88;;;4.85;;
4650;SDS011;2338;49.602;8.722;2023-02-01T10:58:14;17.30;;;3.50;;
4650;SDS011;2338;49.602;8.722;2023-02-01T11:01:02;18.05;;;3.97;;
4650;SDS011;2338;49.602;8.722;2023-02-01T11:03:53;11.60;;;3.65;;
4650;SDS011;2338;49.602;8.722;2023-02-01T11:06:40;24.45;;;5.72;;
4650;SDS011;2338;49.602;8.722;2023-02-01T11:09:29;11.85;;;4.13;;
4650;SDS011;2338;49.602;8.722;2023-02-01T11:15:20;18.85;;;3.50;;
4650;SDS011;2338;49.602;8.722;2023-02-01T11:18:14;16.02;;;4.15;;
4650;SDS011;2338;49.602;8.722;2023-02-01T11:21:02;15.88;;;3.85;;
4650;SDS011;2338;49.602;8.722;2023-02-01T11:23:49;18.77;;;3.78;;
4650;SDS011;2338;49.602;8.722;2023-02-01T11:26:38;13.98;;;5.53;;
4650;SDS011;2338;49.602;8.722;2023-02-01T11:29:35;34.40;;;13.60;;
4650;SDS011;2338;49.602;8.722;2023-02-01T11:32:23;23.52;;;8.65;;
4650;SDS011;2338;49.602;8.722;2023-02-01T11:35:11;13.90;;;5.18;;
4650;SDS011;2338;49.602;8.722;2023-02-01T11:38:09;23.67;;;10.15;;
4650;SDS011;2338;49.602;8.722;2023-02-01T11:41:10;18.83;;;5.88;;
4650;SDS011;2338;49.602;8.722;2023-02-01T11:43:59;20.57;;;5.03;;
4650;SDS011;2338;49.602;8.722;2023-02-01T11:46:46;21.40;;;7.55;;
4650;SDS011;2338;49.602;8.722;2023-02-01T11:49:32;19.65;;;5.43;;
4650;SDS011;2338;49.602;8.722;2023-02-01T11:52:21;18.88;;;4.40;;
4650;SDS011;2338;49.602;8.722;2023-02-01T11:58:57;41.88;;;12.98;;
4650;SDS011;2338;49.602;8.722;2023-02-01T12:01:59;18.52;;;5.38;;
4650;SDS011;2338;49.602;8.722;2023-02-01T12:05:00;17.43;;;4.60;;
4650;SDS011;2338;49.602;8.722;2023-02-01T12:08:07;26.70;;;4.87;;
4650;SDS011;2338;49.602;8.722;2023-02-01T12:11:11;11.73;;;4.50;;
4650;SDS011;2338;49.602;8.722;2023-02-01T12:14:18;16.60;;;3.80;;
4650;SDS011;2338;49.602;8.722;2023-02-01T12:17:21;20.90;;;4.65;;
4650;SDS011;2338;49.602;8.722;2023-02-01T12:20:30;29.15;;;6.28;;
4650;SDS011;2338;49.602;8.722;2023-02-01T12:23:32;14.40;;;3.63;;
4650;SDS011;2338;49.602;8.722;2023-02-01T12:29:39;12.75;;;4.25;;
4650;SDS011;2338;49.602;8.722;2023-02-01T12:32:51;9.07;;;2.92;;
4650;SDS011;2338;49.602;8.722;2023-02-01T12:35:52;19.87;;;3.10;;
4650;SDS011;2338;49.602;8.722;2023-02-01T12:38:51;21.35;;;3.65;;
4650;SDS011;2338;49.602;8.722;2023-02-01T12:41:49;17.37;;;3.13;;
4650;SDS011;2338;49.602;8.722;2023-02-01T12:44:45;14.80;;;3.15;;
4650;SDS011;2338;49.602;8.722;2023-02-01T12:47:37;22.52;;;3.63;;
4650;SDS011;2338;49.602;8.722;2023-02-01T12:50:26;14.07;;;3.83;;
4650;SDS011;2338;49.602;8.722;2023-02-01T12:53:18;18.35;;;3.55;;
4650;SDS011;2338;49.602;8.722;2023-02-01T12:56:09;11.25;;;3.15;;
4650;SDS011;2338;49.602;8.722;2023-02-01T12:58:59;16.77;;;3.85;;
4650;SDS011;2338;49.602;8.722;2023-02-01T13:01:52;12.50;;;3.53;;
4650;SDS011;2338;49.602;8.722;2023-02-01T13:04:45;16.37;;;2.90;;
4650;SDS011;2338;49.602;8.722;2023-02-01T13:07:44;10.60;;;3.72;;
4650;SDS011;2338;49.602;8.722;2023-02-01T13:10:34;16.00;;;3.43;;
4650;SDS011;2338;49.602;8.722;2023-02-01T13:13:28;13.48;;;4.25;;
4650;SDS011;2338;49.602;8.722;2023-02-01T13:16:19;11.33;;;3.20;;
4650;SDS011;2338;49.602;8.722;2023-02-01T13:19:17;15.70;;;3.67;;
4650;SDS011;2338;49.602;8.722;2023-02-01T13:22:06;10.60;;;3.13;;
4650;SDS011;2338;49.602;8.722;2023-02-01T13:24:58;9.47;;;2.80;;
4650;SDS011;2338;49.602;8.722;2023-02-01T13:27:45;19.93;;;3.70;;
4650;SDS011;2338;49.602;8.722;2023-02-01T13:30:34;13.50;;;3.60;;
4650;SDS011;2338;49.602;8.722;2023-02-01T13:36:48;16.50;;;3.80;;
4650;SDS011;2338;49.602;8.722;2023-02-01T13:39:50;14.45;;;3.60;;
4650;SDS011;2338;49.602;8.722;2023-02-01T13:42:51;13.35;;;3.17;;
4650;SDS011;2338;49.602;8.722;2023-02-01T13:45:41;14.02;;;3.38;;
4650;SDS011;2338;49.602;8.722;2023-02-01T13:48:32;11.90;;;3.20;;
4650;SDS011;2338;49.602;8.722;2023-02-01T13:51:31;14.57;;;3.23;;
4650;SDS011;2338;49.602;8.722;2023-02-01T13:54:26;10.63;;;3.03;;
4650;SDS011;2338;49.602;8.722;2023-02-01T13:57:25;23.63;;;5.63;;
4650;SDS011;2338;49.602;8.722;2023-02-01T14:00:24;13.87;;;3.80;;
4650;SDS011;2338;49.602;8.722;2023-02-01T14:03:15;12.93;;;3.17;;
4650;SDS011;2338;49.602;8.722;2023-02-01T14:06:16;12.32;;;3.70;;
4650;SDS011;2338;49.602;8.722;2023-02-01T14:09:33;21.02;;;4.20;;
4650;SDS011;2338;49.602;8.722;2023-02-01T14:15:30;25.13;;;4.47;;
4650;SDS011;2338;49.602;8.722;2023-02-01T14:21:34;15.87;;;5.40;;
4650;SDS011;2338;49.602;8.722;2023-02-01T14:24:34;8.57;;;2.87;;
4650;SDS011;2338;49.602;8.722;2023-02-01T14:27:21;16.08;;;5.50;;
4650;SDS011;2338;49.602;8.722;2023-02-01T14:30:14;15.93;;;3.63;;
4650;SDS011;2338;49.602;8.722;2023-02-01T14:33:02;7.25;;;2.80;;
4650;SDS011;2338;49.602;8.722;2023-02-01T14:36:05;13.18;;;3.20;;
4650;SDS011;2338;49.602;8.722;2023-02-01T14:38:52;11.65;;;3.10;;
4650;SDS011;2338;49.602;8.722;2023-02-01T14:41:40;21.40;;;4.13;;
4650;SDS011;2338;49.602;8.722;2023-02-01T14:44:29;10.52;;;3.40;;
4650;SDS011;2338;49.602;8.722;2023-02-01T14:50:21;16.25;;;4.95;;
4650;SDS011;2338;49.602;8.722;2023-02-01T14:53:20;24.25;;;4.90;;
4650;SDS011;2338;49.602;8.722;2023-02-01T14:56:17;12.75;;;3.53;;
4650;SDS011;2338;49.602;8.722;2023-02-01T14:59:08;18.13;;;3.25;;
4650;SDS011;2338;49.602;8.722;2023-02-01T15:02:00;17.77;;;3.50;;
4650;SDS011;2338;49.602;8.722;2023-02-01T15:04:47;9.75;;;2.20;;
4650;SDS011;2338;49.602;8.722;2023-02-01T15:07:39;7.45;;;2.88;;
4650;SDS011;2338;49.602;8.722;2023-02-01T15:10:25;13.60;;;3.17;;
4650;SDS011;2338;49.602;8.722;2023-02-01T15:13:21;10.70;;;3.65;;
4650;SDS011;2338;49.602;8.722;2023-02-01T15:16:11;5.93;;;2.50;;
4650;SDS011;2338;49.602;8.722;2023-02-01T15:19:06;17.00;;;3.80;;
4650;SDS011;2338;49.602;8.722;2023-02-01T15:21:54;19.90;;;3.38;;
4650;SDS011;2338;49.602;8.722;2023-02-01T15:24:41;27.93;;;4.43;;
4650;SDS011;2338;49.602;8.722;2023-02-01T15:27:27;16.73;;;6.57;;
4650;SDS011;2338;49.602;8.722;2023-02-01T15:30:16;10.20;;;3.00;;
4650;SDS011;2338;49.602;8.722;2023-02-01T15:33:06;12.77;;;3.78;;
4650;SDS011;2338;49.602;8.722;2023-02-01T15:36:10;15.77;;;3.63;;
4650;SDS011;2338;49.602;8.722;2023-02-01T15:39:13;7.85;;;3.70;;
4650;SDS011;2338;49.602;8.722;2023-02-01T15:42:10;13.77;;;3.50;;
4650;SDS011;2338;49.602;8.722;2023-02-01T15:44:58;21.50;;;4.57;;
4650;SDS011;2338;49.602;8.722;2023-02-01T15:47:46;16.58;;;3.63;;
4650;SDS011;2338;49.602;8.722;2023-02-01T15:50:34;10.82;;;3.30;;
4650;SDS011;2338;49.602;8.722;2023-02-01T15:53:24;9.93;;;3.00;;
4650;SDS011;2338;49.602;8.722;2023-02-01T15:56:14;9.03;;;3.70;;
4650;SDS011;2338;49.602;8.722;2023-02-01T15:59:02;18.43;;;4.10;;
4650;SDS011;2338;49.602;8.722;2023-02-01T16:01:50;14.03;;;3.57;;
4650;SDS011;2338;49.602;8.722;2023-02-01T16:04:45;14.18;;;2.55;;
4650;SDS011;2338;49.602;8.722;2023-02-01T16:07:35;18.23;;;2.50;;
4650;SDS011;2338;49.602;8.722;2023-02-01T16:10:23;13.07;;;3.70;;
4650;SDS011;2338;49.602;8.722;2023-02-01T16:13:11;27.45;;;3.03;;
4650;SDS011;2338;49.602;8.722;2023-02-01T16:15:57;15.52;;;3.47;;
4650;SDS011;2338;49.602;8.722;2023-02-01T16:18:42;10.07;;;2.80;;
4650;SDS011;2338;49.602;8.722;2023-02-01T16:21:29;15.60;;;3.03;;
4650;SDS011;2338;49.602;8.722;2023-02-01T16:24:16;9.57;;;3.10;;
4650;SDS011;2338;49.602;8.722;2023-02-01T16:27:01;11.68;;;2.65;;
4650;SDS011;2338;49.602;8.722;2023-02-01T16:29:48;14.85;;;2.88;;
4650;SDS011;2338;49.602;8.722;2023-02-01T16:32:34;13.05;;;4.20;;
4650;SDS011;2338;49.602;8.722;2023-02-01T16:35:22;13.13;;;3.60;;
4650;SDS011;2338;49.602;8.722;2023-02-01T16:38:10;12.60;;;3.10;;
4650;SDS011;2338;49.602;8.722;2023-02-01T16:40:58;7.63;;;2.78;;
4650;SDS011;2338;49.602;8.722;2023-02-01T16:43:45;10.30;;;3.70;;
4650;SDS011;2338;49.602;8.722;2023-02-01T16:46:35;14.20;;;3.30;;
4650;SDS011;2338;49.602;8.722;2023-02-01T16:49:25;24.57;;;4.87;;
4650;SDS011;2338;49.602;8.722;2023-02-01T16:52:12;16.50;;;3.40;;
4650;SDS011;2338;49.602;8.722;2023-02-01T16:55:00;9.55;;;3.50;;
4650;SDS011;2338;49.602;8.722;2023-02-01T16:57:47;12.13;;;3.33;;
4650;SDS011;2338;49.602;8.722;2023-02-01T17:00:33;21.77;;;5.60;;
4650;SDS011;2338;49.602;8.722;2023-02-01T17:03:20;15.98;;;2.60;;
4650;SDS011;2338;49.602;8.722;2023-02-01T17:06:07;9.20;;;3.50;;
4650;SDS011;2338;49.602;8.722;2023-02-01T17:08:55;15.10;;;4.03;;
4650;SDS011;2338;49.602;8.722;2023-02-01T17:11:42;11.93;;;3.05;;
4650;SDS011;2338;49.602;8.722;2023-02-01T17:14:30;17.52;;;3.28;;
4650;SDS011;2338;49.602;8.722;2023-02-01T17:17:20;9.85;;;3.05;;
4650;SDS011;2338;49.602;8.722;2023-02-01T17:20:06;17.93;;;3.60;;
4650;SDS011;2338;49.602;8.722;2023-02-01T17:22:52;13.50;;;3.80;;
4650;SDS011;2338;49.602;8.722;2023-02-01T17:25:38;11.70;;;2.80;;
4650;SDS011;2338;49.602;8.722;2023-02-01T17:28:24;12.40;;;3.67;;
4650;SDS011;2338;49.602;8.722;2023-02-01T17:31:13;15.50;;;4.10;;
4650;SDS011;2338;49.602;8.722;2023-02-01T17:33:59;12.82;;;3.90;;
4650;SDS011;2338;49.602;8.722;2023-02-01T17:36:45;15.77;;;3.27;;
4650;SDS011;2338;49.602;8.722;2023-02-01T17:39:31;12.73;;;3.10;;
4650;SDS011;2338;49.602;8.722;2023-02-01T17:42:34;17.65;;;4.95;;
4650;SDS011;2338;49.602;8.722;2023-02-01T17:45:21;15.43;;;3.33;;
4650;SDS011;2338;49.602;8.722;2023-02-01T17:48:18;15.88;;;3.22;;
4650;SDS011;2338;49.602;8.722;2023-02-01T17:51:04;22.27;;;3.63;;
4650;SDS011;2338;49.602;8.722;2023-02-01T17:53:56;18.40;;;4.75;;